Time;durP1;ratioP1;P1;durP2;ratioP2;P2;SDS_P1;SDS_P2;PMS_P1;PMS_P2;Temp;Humidity;BMP_temperature;BMP_pressure;BME280_temperature;BME280_humidity;BME280_pressure;Samples;Min_cycle;Max_cycle;Signal;HPM_P1;HPM_P2
2021/05/29 00:01:01;;;;;;;2.55;1.90;;;9.80;99.90;;;;;;5035731;28;20206;-73
2021/05/29 00:03:27;;;;;;;3.45;1.50;;;9.90;99.90;;;;;;5037497;28;20260;-73
2021/05/29 00:05:54;;;;;;;3.67;1.60;;;10.10;99.90;;;;;;5039213;28;20213;-74
2021/05/29 00:08:20;;;;;;;7.80;1.70;;;10.10;99.90;;;;;;5035858;28;20198;-73
2021/05/29 00:10:50;;;;;;;5.65;1.80;;;10.00;99.90;;;;;;5037895;28;20202;-73
2021/05/29 00:13:17;;;;;;;4.22;1.80;;;9.90;99.90;;;;;;5033291;28;20224;-73
2021/05/29 00:15:42;;;;;;;6.78;1.75;;;9.90;99.90;;;;;;5030576;28;21237;-73
2021/05/29 00:18:09;;;;;;;2.00;1.55;;;9.80;99.90;;;;;;5036319;28;20197;-73
2021/05/29 00:20:39;;;;;;;2.88;1.83;;;10.00;99.90;;;;;;5032618;28;20284;-73
2021/05/29 00:23:06;;;;;;;3.47;1.75;;;10.00;99.90;;;;;;5030787;28;20189;-73
2021/05/29 00:25:33;;;;;;;5.80;1.70;;;9.90;99.90;;;;;;5027392;28;20214;-73
2021/05/29 00:27:59;;;;;;;7.20;1.90;;;9.80;99.90;;;;;;5048648;28;20197;-73
2021/05/29 00:30:24;;;;;;;2.22;1.70;;;9.70;99.90;;;;;;5028740;28;20206;-73
2021/05/29 00:32:50;;;;;;;5.28;1.98;;;9.70;99.90;;;;;;5033539;28;20194;-74
2021/05/29 00:35:16;;;;;;;3.20;1.80;;;9.90;99.90;;;;;;5033940;28;20261;-73
2021/05/29 00:37:44;;;;;;;3.47;1.90;;;10.00;99.90;;;;;;5032817;28;20280;-73
2021/05/29 00:40:11;;;;;;;1.58;1.40;;;10.30;99.90;;;;;;5028928;28;20866;-73
2021/05/29 00:42:37;;;;;;;5.32;1.70;;;10.20;99.90;;;;;;5023257;28;20244;-73
2021/05/29 00:45:04;;;;;;;3.13;1.73;;;10.00;99.90;;;;;;5028243;28;20307;-73
2021/05/29 00:47:30;;;;;;;2.28;1.67;;;10.10;99.90;;;;;;5030863;28;20616;-73
2021/05/29 00:49:59;;;;;;;2.80;1.50;;;10.40;99.90;;;;;;5032664;28;21021;-73
2021/05/29 00:52:25;;;;;;;2.72;1.70;;;10.40;99.90;;;;;;5034756;28;20194;-73
2021/05/29 00:54:52;;;;;;;2.20;1.60;;;10.30;99.90;;;;;;5030993;28;20198;-73
2021/05/29 00:57:18;;;;;;;3.20;1.83;;;10.30;99.90;;;;;;5044111;28;20206;-73
2021/05/29 00:59:44;;;;;;;3.58;1.70;;;10.40;99.90;;;;;;5030051;28;20622;-73
2021/05/29 01:02:13;;;;;;;3.03;1.80;;;10.50;99.90;;;;;;5043979;23;20322;-71
2021/05/29 01:04:39;;;;;;;3.65;1.60;;;10.70;99.90;;;;;;5033136;28;20229;-69
2021/05/29 01:07:10;;;;;;;5.68;1.60;;;10.80;99.90;;;;;;5035325;28;20201;-70
2021/05/29 01:09:37;;;;;;;3.55;1.80;;;10.90;99.90;;;;;;5031325;28;20285;-70
2021/05/29 01:12:05;;;;;;;3.08;1.67;;;11.00;99.90;;;;;;5033400;28;20190;-69
2021/05/29 01:14:31;;;;;;;2.33;1.52;;;11.00;99.90;;;;;;5033643;28;20210;-71
2021/05/29 01:16:59;;;;;;;7.35;1.70;;;11.00;99.90;;;;;;5034050;28;20243;-70
2021/05/29 01:19:25;;;;;;;4.30;1.60;;;11.20;99.90;;;;;;5036824;28;20201;-70
2021/05/29 01:21:51;;;;;;;5.10;2.13;;;11.30;99.90;;;;;;5034581;28;20197;-71
2021/05/29 01:24:22;;;;;;;3.45;1.70;;;11.30;99.90;;;;;;5030341;28;20198;-71
2021/05/29 01:26:48;;;;;;;4.80;1.88;;;11.40;99.90;;;;;;5035098;28;20229;-70
2021/05/29 01:29:16;;;;;;;1.83;1.40;;;11.30;99.90;;;;;;5034971;28;20317;-70
2021/05/29 01:31:46;;;;;;;3.20;1.67;;;11.30;99.90;;;;;;5032378;28;20911;-70
2021/05/29 01:34:14;;;;;;;5.07;1.50;;;11.40;99.90;;;;;;5031414;28;20279;-70
2021/05/29 01:36:40;;;;;;;3.33;1.90;;;11.30;99.90;;;;;;5032823;28;20189;-70
2021/05/29 01:39:08;;;;;;;2.53;1.42;;;11.40;99.90;;;;;;5035396;28;20958;-71
2021/05/29 01:41:34;;;;;;;2.35;1.73;;;11.40;99.90;;;;;;5030316;28;20308;-70
2021/05/29 01:44:01;;;;;;;2.58;1.70;;;11.40;99.90;;;;;;5029583;28;20207;-70
2021/05/29 01:46:28;;;;;;;2.22;1.73;;;11.40;99.90;;;;;;5034043;28;20259;-71
2021/05/29 01:48:53;;;;;;;6.00;1.73;;;11.50;99.90;;;;;;5034492;28;20213;-70
2021/05/29 01:51:22;;;;;;;2.92;1.75;;;11.40;99.90;;;;;;5028497;28;20674;-69
2021/05/29 01:53:48;;;;;;;2.70;1.63;;;11.30;99.90;;;;;;5034999;28;20272;-70
2021/05/29 01:56:15;;;;;;;1.75;1.42;;;11.30;99.90;;;;;;5036248;28;20818;-71
2021/05/29 01:58:41;;;;;;;1.92;1.50;;;11.30;99.90;;;;;;5031283;28;21015;-69
2021/05/29 02:01:09;;;;;;;3.97;1.60;;;11.30;99.90;;;;;;5032851;28;21840;-69
2021/05/29 02:03:36;;;;;;;3.60;1.80;;;11.20;99.90;;;;;;5033287;28;20782;-69
2021/05/29 02:06:03;;;;;;;3.80;1.60;;;11.20;99.90;;;;;;5032453;28;20208;-70
2021/05/29 02:08:29;;;;;;;5.97;1.85;;;11.10;99.90;;;;;;5029860;28;20202;-70
2021/05/29 02:10:54;;;;;;;3.05;1.55;;;11.00;99.90;;;;;;5034661;28;20208;-70
2021/05/29 02:13:26;;;;;;;3.22;1.60;;;11.10;99.90;;;;;;5034078;28;20198;-70
2021/05/29 02:15:53;;;;;;;7.10;1.70;;;11.00;99.90;;;;;;5032397;28;20228;-70
2021/05/29 02:18:19;;;;;;;5.47;1.95;;;11.00;99.90;;;;;;5032955;28;20201;-70
2021/05/29 02:20:52;;;;;;;3.47;1.63;;;10.90;99.90;;;;;;5035792;28;20980;-70
2021/05/29 02:23:24;;;;;;;3.60;1.75;;;10.80;99.90;;;;;;5033410;28;20275;-68
2021/05/29 02:25:51;;;;;;;1.95;1.65;;;10.80;99.90;;;;;;5032428;28;20205;-69
2021/05/29 02:28:18;;;;;;;2.25;1.65;;;10.80;99.90;;;;;;5028219;28;20202;-69
2021/05/29 02:30:45;;;;;;;6.30;1.80;;;10.60;99.90;;;;;;5028987;28;20300;-70
2021/05/29 02:33:11;;;;;;;3.78;1.80;;;10.60;99.90;;;;;;5033955;28;20201;-71
2021/05/29 02:35:37;;;;;;;4.75;1.52;;;10.60;99.90;;;;;;5035716;28;20201;-70
2021/05/29 02:38:04;;;;;;;3.03;1.70;;;10.50;99.90;;;;;;5035676;28;20204;-70
2021/05/29 02:40:30;;;;;;;2.90;1.65;;;10.50;99.90;;;;;;5035279;28;20227;-69
2021/05/29 02:42:56;;;;;;;4.00;1.63;;;10.60;99.90;;;;;;5035048;28;20594;-70
2021/05/29 02:45:22;;;;;;;4.88;1.73;;;10.60;99.90;;;;;;5037670;28;20264;-71
2021/05/29 02:47:48;;;;;;;7.60;2.45;;;10.60;99.90;;;;;;5036591;28;20275;-70
2021/05/29 02:50:15;;;;;;;8.65;1.90;;;10.50;99.90;;;;;;5034160;28;20244;-71
2021/05/29 02:52:41;;;;;;;7.07;1.90;;;10.50;99.90;;;;;;5035380;28;20194;-69
2021/05/29 02:55:10;;;;;;;2.55;1.80;;;10.60;99.90;;;;;;5032815;28;20225;-70
2021/05/29 02:57:37;;;;;;;3.33;2.38;;;10.50;99.90;;;;;;5035705;28;20201;-70
2021/05/29 03:00:06;;;;;;;2.95;1.80;;;10.50;99.90;;;;;;5035572;28;20201;-70
2021/05/29 03:02:31;;;;;;;3.50;1.80;;;10.70;99.90;;;;;;5034766;28;20229;-71
2021/05/29 03:04:57;;;;;;;3.42;1.60;;;10.70;99.90;;;;;;5032411;28;20213;-70
2021/05/29 03:07:23;;;;;;;3.00;1.90;;;10.80;99.90;;;;;;5036277;28;20208;-71
2021/05/29 03:09:48;;;;;;;3.83;2.00;;;10.80;99.90;;;;;;5039358;28;20223;-72
2021/05/29 03:12:14;;;;;;;2.50;1.80;;;10.90;99.90;;;;;;5040992;28;20209;-69
2021/05/29 03:14:40;;;;;;;3.95;1.80;;;11.00;99.90;;;;;;5051060;28;20209;-70
2021/05/29 03:17:06;;;;;;;2.80;1.80;;;11.10;99.90;;;;;;5037113;28;20343;-70
2021/05/29 03:19:32;;;;;;;2.75;1.73;;;11.10;99.90;;;;;;5039087;28;20210;-71
2021/05/29 03:21:57;;;;;;;2.38;1.73;;;11.20;99.90;;;;;;5040192;28;20579;-69
2021/05/29 03:24:23;;;;;;;2.60;1.80;;;11.20;99.90;;;;;;5041381;28;20201;-71
2021/05/29 03:26:49;;;;;;;4.20;1.85;;;11.10;99.90;;;;;;5033074;28;20228;-69
2021/05/29 03:29:14;;;;;;;6.65;1.88;;;11.10;99.90;;;;;;5034649;28;20205;-70
2021/05/29 03:31:40;;;;;;;2.78;1.75;;;11.20;99.90;;;;;;5036819;28;20680;-70
2021/05/29 03:34:06;;;;;;;3.28;2.05;;;11.20;99.90;;;;;;5038281;28;20232;-71
2021/05/29 03:36:31;;;;;;;2.63;1.80;;;11.20;99.90;;;;;;5039761;28;20278;-70
2021/05/29 03:38:57;;;;;;;3.40;1.95;;;11.20;99.90;;;;;;5039500;28;20204;-71
2021/05/29 03:41:23;;;;;;;5.80;2.20;;;11.20;99.90;;;;;;5035035;28;20255;-71
2021/05/29 03:43:49;;;;;;;2.92;1.80;;;11.30;99.90;;;;;;5036685;28;20201;-70
2021/05/29 03:46:14;;;;;;;3.60;1.90;;;11.30;99.90;;;;;;5036011;28;20206;-70
2021/05/29 03:48:40;;;;;;;2.80;1.80;;;11.30;99.90;;;;;;5038519;28;20194;-71
2021/05/29 03:51:06;;;;;;;4.88;2.10;;;11.30;99.90;;;;;;5039398;28;20815;-70
2021/05/29 03:53:31;;;;;;;5.05;1.90;;;11.30;99.90;;;;;;5040327;28;20277;-69
2021/05/29 03:55:57;;;;;;;4.28;2.00;;;11.40;99.90;;;;;;5039359;28;20198;-71
2021/05/29 03:58:23;;;;;;;6.32;2.00;;;11.40;99.90;;;;;;5040681;28;20272;-70
2021/05/29 04:00:49;;;;;;;4.20;1.73;;;11.40;99.90;;;;;;5038373;28;20212;-71
2021/05/29 04:03:15;;;;;;;4.43;2.20;;;11.40;99.90;;;;;;5041250;28;20225;-70
2021/05/29 04:05:41;;;;;;;3.88;1.83;;;11.50;99.90;;;;;;5037833;28;20275;-70
2021/05/29 04:08:06;;;;;;;4.20;1.73;;;11.60;99.90;;;;;;5042543;28;20224;-71
2021/05/29 04:10:34;;;;;;;5.18;1.85;;;11.60;99.90;;;;;;5044126;28;20212;-70
2021/05/29 04:13:00;;;;;;;3.97;1.65;;;11.70;99.90;;;;;;5044369;28;20202;-69
2021/05/29 04:15:27;;;;;;;2.47;1.70;;;11.70;99.90;;;;;;5040131;28;20198;-69
2021/05/29 04:17:53;;;;;;;6.32;2.30;;;11.80;99.90;;;;;;5047178;28;20216;-70
2021/05/29 04:20:22;;;;;;;3.03;1.77;;;11.90;99.90;;;;;;5042080;28;20205;-70
2021/05/29 04:22:48;;;;;;;4.90;1.92;;;11.90;99.90;;;;;;5045662;28;20209;-69
2021/05/29 04:25:17;;;;;;;5.60;1.92;;;11.90;99.90;;;;;;5042493;28;20210;-69
2021/05/29 04:27:44;;;;;;;2.95;1.80;;;12.00;99.90;;;;;;5042508;28;20380;-70
2021/05/29 04:30:12;;;;;;;2.38;1.90;;;12.00;99.90;;;;;;5044731;28;20280;-70
2021/05/29 04:32:38;;;;;;;2.75;1.95;;;12.10;99.90;;;;;;5038023;28;20200;-69
2021/05/29 04:35:06;;;;;;;3.03;1.73;;;12.20;99.90;;;;;;5042042;28;20197;-70
2021/05/29 04:37:32;;;;;;;4.30;1.80;;;12.30;99.90;;;;;;5043725;28;20291;-69
2021/05/29 04:39:58;;;;;;;3.30;1.77;;;12.40;99.90;;;;;;5042771;28;20595;-71
2021/05/29 04:42:24;;;;;;;3.58;1.88;;;12.40;99.90;;;;;;5046210;28;20209;-71
2021/05/29 04:44:49;;;;;;;3.20;1.70;;;12.50;99.90;;;;;;5045136;28;21035;-71
2021/05/29 04:47:15;;;;;;;11.35;2.00;;;12.50;99.90;;;;;;5045808;28;20197;-71
2021/05/29 04:49:41;;;;;;;6.90;2.00;;;12.60;99.90;;;;;;5045605;28;20197;-70
2021/05/29 04:52:07;;;;;;;3.50;2.08;;;12.70;99.90;;;;;;5044659;28;20207;-70
2021/05/29 04:54:33;;;;;;;5.57;1.95;;;12.70;99.90;;;;;;5040844;28;20217;-70
2021/05/29 04:56:59;;;;;;;5.65;1.92;;;12.80;99.90;;;;;;5041800;28;20927;-69
2021/05/29 04:59:25;;;;;;;4.47;1.95;;;12.90;99.90;;;;;;5041921;28;20663;-69
2021/05/29 05:01:51;;;;;;;4.90;2.03;;;12.90;99.90;;;;;;5042562;28;20194;-70
2021/05/29 05:04:17;;;;;;;5.22;1.98;;;13.00;99.90;;;;;;5044588;28;20201;-70
2021/05/29 05:06:43;;;;;;;3.80;1.88;;;13.10;99.90;;;;;;5044457;28;21035;-69
2021/05/29 05:09:09;;;;;;;8.85;2.00;;;13.20;99.90;;;;;;5043908;28;20190;-70
2021/05/29 05:11:36;;;;;;;5.80;1.75;;;13.30;99.90;;;;;;5042069;28;20281;-70
2021/05/29 05:14:03;;;;;;;10.40;1.98;;;13.40;99.90;;;;;;5044084;28;20683;-69
2021/05/29 05:16:29;;;;;;;4.95;2.03;;;13.40;99.90;;;;;;5044940;28;20205;-69
2021/05/29 05:18:55;;;;;;;4.30;2.03;;;13.50;99.90;;;;;;5044354;28;20205;-70
2021/05/29 05:21:21;;;;;;;3.67;2.10;;;13.60;99.90;;;;;;5040324;28;20198;-69
2021/05/29 05:23:50;;;;;;;2.20;1.60;;;13.70;99.90;;;;;;5042425;28;20287;-69
2021/05/29 05:26:16;;;;;;;3.60;1.73;;;13.80;99.90;;;;;;5042343;28;20220;-69
2021/05/29 05:28:42;;;;;;;4.72;2.03;;;13.90;99.90;;;;;;5043245;28;20197;-69
2021/05/29 05:31:08;;;;;;;4.82;1.90;;;14.00;99.40;;;;;;5043103;28;20251;-70
2021/05/29 05:33:39;;;;;;;4.47;1.80;;;14.00;99.90;;;;;;5040478;28;20783;-70
2021/05/29 05:36:07;;;;;;;3.08;1.90;;;14.20;99.90;;;;;;5040829;28;20556;-69
2021/05/29 05:38:33;;;;;;;4.75;1.98;;;14.30;99.70;;;;;;5041338;28;20216;-69
2021/05/29 05:40:59;;;;;;;4.85;1.70;;;14.40;99.10;;;;;;5039896;28;20198;-71
2021/05/29 05:43:25;;;;;;;3.60;1.77;;;14.50;99.00;;;;;;5037961;28;20289;-70
2021/05/29 05:45:51;;;;;;;5.07;1.73;;;14.70;98.40;;;;;;5043260;28;20205;-69
2021/05/29 05:48:16;;;;;;;4.47;1.80;;;14.70;97.70;;;;;;5042548;28;20655;-70
2021/05/29 05:50:56;;;;;;;3.67;1.88;;;14.80;98.20;;;;;;5043961;28;20197;-70
2021/05/29 05:53:23;;;;;;;3.08;1.90;;;15.00;97.70;;;;;;5043793;28;20646;-69
2021/05/29 05:55:58;;;;;;;4.03;1.83;;;15.20;97.80;;;;;;5043041;28;20229;-70
2021/05/29 05:58:23;;;;;;;4.03;1.80;;;15.20;96.30;;;;;;5042030;28;20246;-70
2021/05/29 06:00:49;;;;;;;4.15;1.80;;;15.30;96.80;;;;;;5043298;28;20201;-69
2021/05/29 06:03:15;;;;;;;9.13;1.90;;;15.40;95.60;;;;;;5037805;28;20236;-69
2021/05/29 06:05:41;;;;;;;6.10;2.03;;;15.30;96.60;;;;;;5044248;28;20627;-70
2021/05/29 06:08:07;;;;;;;5.28;1.73;;;15.40;96.40;;;;;;5040767;28;20186;-71
2021/05/29 06:10:33;;;;;;;4.97;2.17;;;15.50;95.60;;;;;;5043536;28;20221;-69
2021/05/29 06:12:59;;;;;;;5.20;1.50;;;15.60;96.70;;;;;;5039944;28;20220;-70
2021/05/29 06:20:43;;;;;;;4.38;1.70;;;16.10;98.40;;;;;;5038679;28;20197;-70
2021/05/29 06:23:10;;;;;;;3.65;1.70;;;16.40;93.90;;;;;;5039751;28;20544;-70
2021/05/29 06:25:36;;;;;;;5.50;1.63;;;16.40;93.40;;;;;;5036280;28;20201;-70
2021/05/29 06:28:01;;;;;;;4.82;1.58;;;16.50;94.20;;;;;;5039876;28;20185;-71
2021/05/29 06:30:27;;;;;;;5.38;1.70;;;16.60;91.90;;;;;;5038734;28;20685;-71
2021/05/29 06:32:53;;;;;;;3.78;1.70;;;16.40;92.10;;;;;;5036282;28;20198;-71
2021/05/29 06:35:18;;;;;;;6.88;1.95;;;16.50;92.80;;;;;;5038769;28;20193;-71
2021/05/29 06:37:44;;;;;;;2.88;1.40;;;16.70;91.90;;;;;;5036443;28;20671;-72
2021/05/29 06:40:10;;;;;;;3.30;1.77;;;16.80;92.10;;;;;;5037779;28;20825;-70
2021/05/29 06:42:36;;;;;;;5.00;1.67;;;16.80;90.80;;;;;;5035941;28;20222;-70
2021/05/29 06:45:02;;;;;;;4.78;1.90;;;16.80;92.60;;;;;;5035124;28;20217;-70
2021/05/29 06:47:28;;;;;;;4.82;1.63;;;16.70;90.40;;;;;;5037347;28;20206;-71
2021/05/29 06:49:53;;;;;;;4.05;1.65;;;16.90;93.10;;;;;;5033357;28;20281;-71
2021/05/29 06:52:23;;;;;;;4.97;1.88;;;17.10;91.70;;;;;;5039048;28;20202;-71
2021/05/29 07:00:17;;;;;;;3.47;1.80;;;17.80;90.30;;;;;;5029220;28;20216;-71
2021/05/29 07:02:42;;;;;;;5.35;1.80;;;17.80;88.30;;;;;;5033456;28;20233;-72
2021/05/29 07:05:10;;;;;;;3.72;1.70;;;17.70;88.30;;;;;;5037222;28;20271;-72
2021/05/29 07:07:37;;;;;;;6.07;1.77;;;17.60;88.60;;;;;;5033938;28;20198;-72
2021/05/29 07:10:07;;;;;;;5.75;1.73;;;17.70;91.60;;;;;;5032956;28;20194;-71
2021/05/29 07:12:33;;;;;;;3.03;1.70;;;17.90;91.00;;;;;;5032150;28;20229;-72
2021/05/29 07:14:58;;;;;;;6.03;1.88;;;18.10;87.40;;;;;;5035037;28;20426;-72
2021/05/29 07:17:30;;;;;;;5.07;1.80;;;18.10;87.60;;;;;;5033227;28;20322;-70
2021/05/29 07:19:56;;;;;;;7.95;2.08;;;18.20;90.90;;;;;;5033685;28;20656;-70
2021/05/29 07:22:22;;;;;;;6.18;1.50;;;18.30;88.60;;;;;;5034210;28;20202;-72
2021/05/29 07:24:47;;;;;;;4.95;2.15;;;18.70;89.30;;;;;;5035259;28;20883;-72
2021/05/29 07:27:13;;;;;;;4.75;1.60;;;18.90;84.30;;;;;;5031236;28;20557;-72
2021/05/29 07:29:39;;;;;;;4.03;1.65;;;19.00;85.50;;;;;;5031184;28;20198;-73
2021/05/29 07:32:05;;;;;;;6.47;2.00;;;19.20;82.40;;;;;;5035231;28;20193;-72
2021/05/29 07:34:30;;;;;;;3.15;1.77;;;19.30;83.60;;;;;;5029860;28;20205;-72
2021/05/29 07:36:56;;;;;;;4.32;2.10;;;19.40;86.60;;;;;;5031125;28;20188;-72
2021/05/29 07:39:22;;;;;;;3.42;1.60;;;19.50;80.10;;;;;;5032548;28;20198;-71
2021/05/29 07:41:48;;;;;;;5.85;1.77;;;19.30;82.90;;;;;;5047507;28;20193;-72
2021/05/29 07:44:13;;;;;;;3.53;1.70;;;19.10;83.20;;;;;;5028899;28;20197;-71
2021/05/29 07:46:39;;;;;;;2.58;1.65;;;19.20;83.50;;;;;;5037579;28;20205;-70
2021/05/29 07:49:06;;;;;;;4.95;1.52;;;19.40;81.50;;;;;;5030333;28;20229;-71
2021/05/29 07:51:35;;;;;;;2.58;1.50;;;19.60;87.70;;;;;;5027411;28;20208;-72
2021/05/29 07:54:02;;;;;;;4.35;1.63;;;19.70;82.30;;;;;;5034352;28;20229;-73
2021/05/29 07:56:27;;;;;;;3.92;1.90;;;19.90;82.10;;;;;;5032036;28;20240;-73
2021/05/29 07:58:54;;;;;;;5.28;1.88;;;19.90;80.10;;;;;;5037004;28;20281;-72
2021/05/29 08:01:20;;;;;;;6.00;1.70;;;19.80;78.80;;;;;;5031484;28;20201;-72
2021/05/29 08:03:46;;;;;;;3.50;1.70;;;19.90;81.80;;;;;;5030905;28;20236;-71
2021/05/29 08:06:17;;;;;;;2.00;1.55;;;20.10;82.90;;;;;;5035546;28;20554;-72
2021/05/29 08:08:44;;;;;;;3.75;1.52;;;20.40;85.20;;;;;;5037893;28;20197;-72
2021/05/29 08:11:16;;;;;;;3.25;1.67;;;20.90;78.40;;;;;;5027805;28;20200;-71
2021/05/29 08:13:42;;;;;;;6.57;1.77;;;20.90;74.80;;;;;;5053686;28;20280;-72
2021/05/29 08:16:08;;;;;;;2.58;1.60;;;21.00;76.20;;;;;;5028873;28;20312;-72
2021/05/29 08:18:34;;;;;;;2.92;1.80;;;20.70;79.60;;;;;;5039720;28;20563;-72
2021/05/29 08:20:59;;;;;;;2.08;1.48;;;21.00;75.60;;;;;;5030494;28;20315;-71
2021/05/29 08:23:25;;;;;;;2.95;1.48;;;21.00;76.90;;;;;;5039513;28;20225;-71
2021/05/29 08:25:51;;;;;;;5.13;1.88;;;21.00;75.20;;;;;;5033695;28;20213;-72
2021/05/29 08:28:17;;;;;;;3.90;1.50;;;21.10;78.60;;;;;;5035320;28;20197;-72
2021/05/29 08:30:43;;;;;;;7.00;2.28;;;21.50;75.00;;;;;;5038814;28;20205;-72
2021/05/29 08:33:08;;;;;;;11.93;7.80;;;21.90;74.10;;;;;;5039761;28;20198;-72
2021/05/29 08:35:35;;;;;;;12.82;4.57;;;22.30;74.70;;;;;;5040464;28;20266;-73
2021/05/29 08:38:02;;;;;;;11.07;7.07;;;22.60;75.00;;;;;;5042401;28;20280;-72
2021/05/29 08:40:28;;;;;;;4.18;1.85;;;22.60;77.30;;;;;;5034885;28;20642;-72
2021/05/29 08:42:53;;;;;;;5.68;1.50;;;23.00;72.10;;;;;;5037607;28;20198;-72
2021/05/29 08:45:20;;;;;;;5.57;2.38;;;22.60;68.30;;;;;;5040542;28;20197;-72
2021/05/29 08:47:48;;;;;;;6.03;2.70;;;22.50;74.00;;;;;;5035853;28;20190;-72
2021/05/29 08:50:16;;;;;;;8.50;2.08;;;22.80;76.90;;;;;;5036576;28;20296;-71
2021/05/29 08:52:42;;;;;;;3.10;1.60;;;23.40;75.50;;;;;;5039408;28;20198;-72
2021/05/29 08:55:11;;;;;;;4.40;1.75;;;23.50;75.30;;;;;;5037276;28;20202;-72
2021/05/29 08:57:38;;;;;;;4.28;1.73;;;23.90;70.30;;;;;;5035721;28;20230;-72
2021/05/29 09:00:08;;;;;;;2.95;1.67;;;23.30;68.80;;;;;;5034049;28;20311;-72
2021/05/29 09:02:53;;;;;;;4.47;1.40;;;23.50;69.20;;;;;;5035322;28;20225;-71
2021/05/29 09:05:19;;;;;;;6.68;1.80;;;23.10;69.20;;;;;;5033584;28;20214;-72
2021/05/29 09:07:44;;;;;;;4.80;1.52;;;22.90;68.80;;;;;;5039022;28;20216;-71
2021/05/29 09:10:14;;;;;;;3.35;1.42;;;23.30;67.70;;;;;;5034326;28;20208;-70
2021/05/29 09:13:02;;;;;;;3.10;1.52;;;23.50;67.70;;;;;;5036614;28;20221;-70
2021/05/29 09:15:54;;;;;;;5.55;1.60;;;23.60;64.40;;;;;;5037523;28;20895;-70
2021/05/29 09:18:30;;;;;;;3.75;1.48;;;23.80;66.10;;;;;;5035267;28;20913;-69
2021/05/29 09:21:19;;;;;;;7.43;1.70;;;24.00;69.00;;;;;;5035385;28;20197;-71
2021/05/29 09:24:01;;;;;;;3.03;1.73;;;24.30;69.00;;;;;;5028854;28;20506;-71
2021/05/29 09:26:40;;;;;;;3.00;1.55;;;24.60;64.40;;;;;;5037459;28;20901;-71
2021/05/29 09:29:16;;;;;;;2.55;1.60;;;24.90;64.30;;;;;;5032879;28;20206;-71
2021/05/29 09:32:00;;;;;;;2.55;1.60;;;24.80;64.30;;;;;;5036675;28;20189;-71
2021/05/29 09:34:42;;;;;;;4.95;1.70;;;25.10;64.80;;;;;;5038723;28;20197;-71
2021/05/29 09:37:12;;;;;;;11.35;1.60;;;24.60;60.00;;;;;;5035600;28;20236;-71
2021/05/29 09:39:40;;;;;;;2.22;1.60;;;24.50;67.50;;;;;;5037106;28;20230;-71
2021/05/29 09:42:08;;;;;;;9.48;1.88;;;24.50;59.30;;;;;;5036047;28;20198;-71
2021/05/29 09:44:34;;;;;;;3.92;1.75;;;24.70;63.70;;;;;;5035846;28;20201;-71
2021/05/29 09:47:05;;;;;;;3.60;1.60;;;24.70;63.80;;;;;;5045450;28;20228;-71
2021/05/29 09:49:54;;;;;;;4.30;1.75;;;24.90;59.40;;;;;;5044439;28;20689;-71
2021/05/29 09:52:23;;;;;;;3.83;1.88;;;24.30;60.60;;;;;;5044455;28;20258;-72
2021/05/29 09:54:54;;;;;;;7.00;1.75;;;23.80;64.10;;;;;;5041699;28;20686;-72
2021/05/29 09:57:19;;;;;;;4.72;1.70;;;23.70;61.90;;;;;;5042379;28;20662;-72
2021/05/29 10:00:01;;;;;;;4.88;1.75;;;23.60;62.90;;;;;;5029358;28;20257;-71
2021/05/29 10:02:32;;;;;;;4.38;1.70;;;23.50;66.80;;;;;;5052865;28;20221;-72
2021/05/29 10:04:58;;;;;;;4.35;1.73;;;23.80;65.00;;;;;;5034571;28;20306;-71
2021/05/29 10:07:38;;;;;;;3.10;1.70;;;24.40;63.50;;;;;;5040373;28;20276;-71
2021/05/29 10:10:07;;;;;;;3.67;1.60;;;24.70;63.50;;;;;;5038472;28;20227;-71
2021/05/29 10:12:33;;;;;;;5.22;1.63;;;25.30;61.70;;;;;;5037162;28;20994;-70
2021/05/29 10:14:59;;;;;;;2.70;1.40;;;25.60;57.70;;;;;;5038085;28;20204;-71
2021/05/29 10:17:27;;;;;;;4.20;1.70;;;25.60;56.80;;;;;;5036490;28;20580;-71
2021/05/29 10:19:53;;;;;;;4.03;2.08;;;25.10;62.00;;;;;;5037654;28;20205;-71
2021/05/29 10:22:19;;;;;;;3.90;1.90;;;25.40;56.90;;;;;;5038143;28;20736;-70
2021/05/29 10:24:54;;;;;;;3.67;1.88;;;25.30;62.70;;;;;;5035397;28;20202;-70
2021/05/29 10:27:25;;;;;;;3.45;1.83;;;25.90;64.50;;;;;;5034715;28;20203;-71
2021/05/29 10:29:58;;;;;;;3.28;1.80;;;26.80;60.60;;;;;;5036976;28;20200;-70
2021/05/29 10:32:27;;;;;;;3.97;1.67;;;27.30;58.00;;;;;;5038189;28;20202;-71
2021/05/29 10:35:05;;;;;;;3.03;1.77;;;26.80;57.10;;;;;;5038941;28;20193;-70
2021/05/29 10:37:37;;;;;;;2.42;1.63;;;27.00;53.70;;;;;;5036326;28;20793;-71
2021/05/29 10:40:27;;;;;;;5.13;1.60;;;26.50;53.80;;;;;;5029193;28;20228;-71
2021/05/29 10:43:16;;;;;;;5.18;1.80;;;26.30;56.80;;;;;;5026623;28;20250;-71
2021/05/29 10:45:50;;;;;;;8.90;1.80;;;26.60;56.80;;;;;;5031268;28;20236;-71
2021/05/29 10:48:17;;;;;;;3.92;1.67;;;26.80;54.20;;;;;;5029896;28;20563;-71
2021/05/29 10:53:37;;;;;;;3.03;1.50;;;26.60;57.60;;;;;;5032740;28;20491;-72
2021/05/29 10:56:24;;;;;;;16.65;3.15;;;26.20;55.20;;;;;;5038769;28;20200;-72
2021/05/29 10:59:16;;;;;;;7.05;2.13;;;26.70;57.20;;;;;;5034089;28;20205;-73
2021/05/29 11:01:42;;;;;;;4.25;1.77;;;26.90;60.00;;;;;;5030692;28;20221;-72
2021/05/29 11:04:23;;;;;;;5.07;1.80;;;27.10;58.70;;;;;;5029178;28;20970;-72
2021/05/29 11:06:52;;;;;;;4.40;1.70;;;27.60;53.70;;;;;;5031559;28;20463;-73
2021/05/29 11:09:46;;;;;;;7.07;2.33;;;27.30;53.00;;;;;;5032101;28;20430;-71
2021/05/29 11:12:13;;;;;;;5.20;1.85;;;26.10;55.80;;;;;;5033515;28;20394;-74
2021/05/29 11:14:56;;;;;;;3.47;1.80;;;26.10;55.80;;;;;;5032119;28;21241;-74
2021/05/29 11:17:30;;;;;;;3.90;1.63;;;26.60;55.90;;;;;;5036604;28;20230;-74
2021/05/29 11:20:22;;;;;;;3.30;1.80;;;27.00;55.50;;;;;;5034795;28;20237;-73
2021/05/29 11:22:50;;;;;;;3.97;1.70;;;27.00;52.00;;;;;;5026122;28;20447;-73
2021/05/29 11:25:20;;;;;;;11.40;4.80;;;27.70;55.80;;;;;;5033230;28;20227;-75
2021/05/29 11:27:48;;;;;;;16.05;7.57;;;27.70;53.40;;;;;;5028599;28;20934;-73
2021/05/29 11:30:20;;;;;;;9.55;5.35;;;27.70;55.30;;;;;;5037085;28;20203;-73
2021/05/29 11:33:12;;;;;;;18.17;8.40;;;27.20;53.60;;;;;;5033339;28;20686;-71
2021/05/29 11:35:50;;;;;;;9.35;4.22;;;27.00;56.80;;;;;;5039629;28;20201;-73
2021/05/29 11:38:33;;;;;;;45.42;19.15;;;27.30;54.50;;;;;;5035940;28;20271;-72
2021/05/29 11:41:09;;;;;;;9.68;5.30;;;27.40;55.40;;;;;;5037509;28;20263;-71
2021/05/29 11:43:44;;;;;;;5.88;3.47;;;26.80;50.70;;;;;;5034639;28;20206;-71
2021/05/29 11:46:15;;;;;;;27.92;13.52;;;26.20;53.70;;;;;;5034175;28;20259;-71
2021/05/29 11:48:46;;;;;;;174.57;100.57;;;26.10;54.50;;;;;;5041256;28;20246;-71
2021/05/29 11:51:14;;;;;;;70.18;43.10;;;26.10;55.30;;;;;;5037623;28;20616;-73
2021/05/29 11:53:47;;;;;;;26.65;17.10;;;26.60;56.30;;;;;;5041841;28;20200;-76
2021/05/29 11:56:36;;;;;;;4.13;2.60;;;27.20;53.40;;;;;;5039133;28;20216;-75
2021/05/29 11:59:05;;;;;;;4.90;2.15;;;26.80;52.30;;;;;;5041702;28;20200;-74
2021/05/29 12:01:36;;;;;;;3.60;1.80;;;27.10;51.40;;;;;;5042752;28;20205;-74
2021/05/29 12:04:06;;;;;;;27.50;21.63;;;25.10;52.00;;;;;;5042754;28;20213;-72
2021/05/29 12:06:41;;;;;;;8.48;4.93;;;25.50;56.30;;;;;;5038838;28;20295;-72
2021/05/29 12:09:08;;;;;;;6.47;3.95;;;25.90;52.80;;;;;;5041856;28;20203;-72
2021/05/29 12:11:35;;;;;;;3.50;1.98;;;26.00;55.10;;;;;;5042929;28;20568;-72
2021/05/29 12:14:16;;;;;;;3.55;1.77;;;26.20;56.50;;;;;;5037878;28;20207;-72
2021/05/29 12:16:54;;;;;;;4.40;3.05;;;26.30;54.50;;;;;;5054443;28;20205;-73
2021/05/29 12:19:43;;;;;;;3.15;1.50;;;26.90;55.50;;;;;;5036770;28;20729;-71
2021/05/29 12:22:19;;;;;;;4.47;2.15;;;27.50;52.00;;;;;;5036043;28;20228;-72
2021/05/29 12:24:50;;;;;;;4.10;2.10;;;28.00;50.70;;;;;;5037753;28;20401;-72
2021/05/29 12:27:23;;;;;;;8.73;1.95;;;27.90;49.40;;;;;;5034813;28;20217;-74
2021/05/29 12:29:55;;;;;;;4.43;1.75;;;27.60;50.40;;;;;;5043693;28;20208;-72
2021/05/29 12:32:39;;;;;;;4.85;1.85;;;27.30;49.40;;;;;;5041534;28;20232;-72
2021/05/29 12:35:11;;;;;;;6.13;1.80;;;27.10;55.30;;;;;;5037216;28;20210;-74
2021/05/29 12:37:42;;;;;;;4.90;1.90;;;27.10;51.60;;;;;;5038621;28;20284;-75
2021/05/29 12:40:15;;;;;;;2.72;1.70;;;26.70;53.30;;;;;;5040549;28;20200;-74
2021/05/29 12:42:41;;;;;;;3.50;1.80;;;27.00;52.90;;;;;;5038952;28;20229;-74
2021/05/29 12:45:31;;;;;;;5.05;1.70;;;27.40;52.70;;;;;;5040097;28;20244;-75
2021/05/29 12:48:03;;;;;;;3.85;1.73;;;27.30;50.30;;;;;;5040575;28;20194;-74
2021/05/29 12:50:38;;;;;;;4.25;1.98;;;27.80;51.10;;;;;;5037619;28;20209;-74
2021/05/29 12:53:15;;;;;;;4.47;1.92;;;28.20;53.30;;;;;;5037875;28;20225;-74
2021/05/29 12:55:42;;;;;;;3.35;1.65;;;28.60;52.10;;;;;;5039934;28;20234;-72
2021/05/29 12:58:16;;;;;;;5.60;1.80;;;28.00;48.20;;;;;;5037972;28;20291;-74
2021/05/29 13:11:39;;;;;;;4.10;1.80;;;28.10;50.90;;;;;;5040336;28;20201;-75
2021/05/29 13:14:09;;;;;;;2.92;1.52;;;27.80;53.80;;;;;;5039117;28;21052;-73
2021/05/29 13:16:55;;;;;;;2.42;1.58;;;28.10;51.50;;;;;;5031568;28;20912;-75
2021/05/29 13:19:26;;;;;;;3.92;1.80;;;28.00;48.80;;;;;;5040211;28;20292;-75